createdAt,value
2023-05-21T00:01:33.554Z,3.73
2023-05-21T00:04:01.371Z,3.50
2023-05-21T00:06:29.133Z,3.73
2023-05-21T00:08:56.880Z,3.60
2023-05-21T00:11:24.512Z,3.53
2023-05-21T00:13:52.161Z,4.10
2023-05-21T00:16:21.261Z,3.73
2023-05-21T00:18:49.731Z,3.80
2023-05-21T00:21:17.755Z,3.80
2023-05-21T00:23:48.116Z,3.40
2023-05-21T00:26:15.734Z,3.40
2023-05-21T00:28:43.488Z,3.87
2023-05-21T00:31:11.181Z,3.50
2023-05-21T00:33:40.197Z,3.33
2023-05-21T00:36:08.751Z,3.90
2023-05-21T00:38:38.035Z,3.70
2023-05-21T00:41:05.936Z,3.10
2023-05-21T00:43:33.806Z,3.83
2023-05-21T00:46:01.676Z,3.50
2023-05-21T00:48:29.448Z,3.60
2023-05-21T00:50:58.501Z,3.80
2023-05-21T00:53:27.543Z,3.40
2023-05-21T00:55:55.222Z,3.40
2023-05-21T00:58:22.916Z,3.60
2023-05-21T01:00:51.005Z,3.33
2023-05-21T01:03:19.189Z,3.87
2023-05-21T01:05:48.875Z,3.67
2023-05-21T01:08:18.103Z,3.23
2023-05-21T01:10:45.832Z,3.37
2023-05-21T01:13:14.945Z,3.20
2023-05-21T01:15:43.152Z,3.13
2023-05-21T01:18:11.003Z,3.83
2023-05-21T01:20:39.235Z,3.67
2023-05-21T01:23:08.221Z,3.40
2023-05-21T01:25:36.741Z,4.10
2023-05-21T01:28:04.714Z,3.60
2023-05-21T01:30:32.430Z,3.50
2023-05-21T01:33:04.844Z,3.40
2023-05-21T01:35:36.358Z,3.40
2023-05-21T01:38:15.199Z,3.20
2023-05-21T01:40:48.267Z,3.20
2023-05-21T01:43:16.488Z,4.10
2023-05-21T01:45:46.100Z,3.47
2023-05-21T01:48:14.750Z,4.10
2023-05-21T01:50:46.328Z,3.50
2023-05-21T01:53:17.268Z,3.30
2023-05-21T01:55:45.932Z,3.60
2023-05-21T01:58:15.710Z,4.23
2023-05-21T02:00:45.418Z,3.50
2023-05-21T02:03:14.695Z,3.30
2023-05-21T02:05:42.458Z,3.33
2023-05-21T02:08:11.202Z,3.23
2023-05-21T02:10:40.277Z,4.17
2023-05-21T02:13:08.075Z,3.43
2023-05-21T02:15:35.920Z,3.90
2023-05-21T02:18:04.339Z,3.47
2023-05-21T02:20:32.377Z,3.43
2023-05-21T02:23:00.113Z,3.27
2023-05-21T02:25:27.780Z,3.40
2023-05-21T02:27:56.902Z,3.67
2023-05-21T02:30:24.651Z,3.50
2023-05-21T02:32:52.371Z,3.33
2023-05-21T02:35:20.069Z,4.03
2023-05-21T02:37:47.784Z,4.07
2023-05-21T02:40:15.545Z,3.80
2023-05-21T02:42:43.270Z,4.10
2023-05-21T02:45:13.740Z,3.53
2023-05-21T02:47:41.717Z,3.40
2023-05-21T02:50:12.128Z,3.90
2023-05-21T02:52:39.800Z,4.00
2023-05-21T02:55:08.633Z,3.57
2023-05-21T02:57:36.320Z,4.00
2023-05-21T03:00:05.881Z,3.37
2023-05-21T03:02:35.070Z,4.03
2023-05-21T03:05:02.903Z,3.80
2023-05-21T03:07:30.681Z,3.63
2023-05-21T03:09:58.323Z,3.73
2023-05-21T03:12:26.348Z,3.30
2023-05-21T03:14:54.165Z,3.13
2023-05-21T03:17:22.270Z,3.90
2023-05-21T03:19:52.004Z,3.87
2023-05-21T03:22:20.244Z,3.50
2023-05-21T03:24:48.621Z,3.53
2023-05-21T03:27:16.795Z,3.30
2023-05-21T03:29:44.665Z,3.97
2023-05-21T03:32:12.539Z,4.00
2023-05-21T03:34:40.225Z,4.00
2023-05-21T03:37:09.323Z,3.70
2023-05-21T03:39:36.978Z,3.97
2023-05-21T03:42:04.941Z,3.87
2023-05-21T03:44:32.918Z,3.73
2023-05-21T03:47:00.749Z,4.30
2023-05-21T03:49:28.495Z,3.90
2023-05-21T03:51:56.338Z,3.17
2023-05-21T03:54:25.674Z,3.80
2023-05-21T03:56:53.409Z,4.03
2023-05-21T03:59:21.241Z,3.73
2023-05-21T04:01:48.930Z,3.77
2023-05-21T04:04:16.788Z,4.00
2023-05-21T04:06:44.549Z,3.90
2023-05-21T04:09:12.417Z,4.33
2023-05-21T04:11:41.429Z,4.47
2023-05-21T04:14:09.166Z,3.93
2023-05-21T04:16:38.627Z,3.60
2023-05-21T04:19:06.518Z,4.20
2023-05-21T04:21:34.369Z,3.97
2023-05-21T04:24:02.128Z,3.70
2023-05-21T04:26:33.766Z,4.13
2023-05-21T04:29:04.958Z,4.00
2023-05-21T04:31:33.169Z,3.87
2023-05-21T04:34:00.972Z,4.30
2023-05-21T04:36:30.157Z,4.10
2023-05-21T04:38:57.844Z,4.07
2023-05-21T04:41:25.534Z,4.13
2023-05-21T04:43:55.346Z,4.43
2023-05-21T04:46:25.676Z,3.97
2023-05-21T04:48:55.026Z,4.47
2023-05-21T04:51:24.639Z,4.60
2023-05-21T04:53:53.868Z,3.97
2023-05-21T04:56:22.810Z,4.20
2023-05-21T04:58:50.820Z,4.30
2023-05-21T05:01:18.963Z,3.93
2023-05-21T05:03:48.185Z,5.10
2023-05-21T05:06:15.908Z,4.93
2023-05-21T05:08:43.629Z,4.70
2023-05-21T05:11:11.332Z,4.70
2023-05-21T05:13:40.205Z,4.53
2023-05-21T05:16:09.060Z,4.20
2023-05-21T05:18:36.989Z,4.67
2023-05-21T05:21:06.149Z,4.93
2023-05-21T05:23:33.826Z,4.87
2023-05-21T05:26:01.588Z,4.50
2023-05-21T05:28:29.280Z,4.80
2023-05-21T05:30:57.048Z,4.13
2023-05-21T05:33:24.771Z,4.83
2023-05-21T05:35:52.597Z,4.78
2023-05-21T05:38:21.694Z,5.10
2023-05-21T05:40:49.384Z,4.85
2023-05-21T05:43:17.046Z,4.10
2023-05-21T05:45:44.720Z,4.80
2023-05-21T05:48:12.961Z,4.63
2023-05-21T05:50:41.023Z,5.35
2023-05-21T05:53:08.719Z,5.35
2023-05-21T05:55:38.282Z,5.07
2023-05-21T05:58:06.504Z,4.90
2023-05-21T06:00:34.197Z,5.30
2023-05-21T06:03:01.991Z,4.43
2023-05-21T06:05:29.765Z,5.30
2023-05-21T06:07:57.562Z,5.82
2023-05-21T06:10:25.297Z,5.32
2023-05-21T06:12:54.361Z,5.32
2023-05-21T06:15:22.233Z,5.32
2023-05-21T06:17:49.928Z,5.28
2023-05-21T06:20:17.873Z,5.45
2023-05-21T06:22:45.571Z,5.85
2023-05-21T06:25:13.254Z,5.60
2023-05-21T06:27:40.953Z,5.65
2023-05-21T06:30:10.757Z,5.40
2023-05-21T06:32:38.541Z,5.80
2023-05-21T06:35:07.341Z,6.22
2023-05-21T06:37:35.073Z,5.65
2023-05-21T06:40:03.238Z,5.90
2023-05-21T06:42:30.983Z,5.68
2023-05-21T06:44:58.643Z,5.93
2023-05-21T06:47:27.637Z,6.53
2023-05-21T06:49:55.398Z,6.65
2023-05-21T06:52:23.188Z,6.25
2023-05-21T06:54:50.992Z,6.45
2023-05-21T06:57:18.653Z,5.95
2023-05-21T06:59:46.353Z,6.32
2023-05-21T07:02:14.107Z,6.63
2023-05-21T07:04:43.142Z,6.07
2023-05-21T07:07:10.881Z,6.40
2023-05-21T07:09:38.558Z,6.60
2023-05-21T07:12:06.745Z,6.68
2023-05-21T07:14:34.427Z,6.25
2023-05-21T07:17:02.157Z,6.65
2023-05-21T07:19:30.063Z,6.32
2023-05-21T07:21:59.229Z,7.35
2023-05-21T07:24:27.617Z,7.68
2023-05-21T07:26:55.336Z,7.93
2023-05-21T07:29:23.025Z,7.40
2023-05-21T07:31:50.745Z,6.78
2023-05-21T07:34:18.567Z,8.07
2023-05-21T07:36:46.246Z,8.05
2023-05-21T07:39:15.318Z,7.20
2023-05-21T07:41:42.957Z,8.02
2023-05-21T07:44:10.641Z,8.52
2023-05-21T07:46:38.418Z,7.63
2023-05-21T07:49:06.118Z,8.10
2023-05-21T07:51:34.131Z,8.32
2023-05-21T07:54:01.828Z,9.00
2023-05-21T07:56:32.361Z,7.70
2023-05-21T07:59:00.034Z,7.78
2023-05-21T08:01:29.596Z,8.20
2023-05-21T08:04:00.679Z,9.07
2023-05-21T08:06:28.508Z,8.15
2023-05-21T08:08:56.189Z,8.00
2023-05-21T08:11:23.926Z,8.00
2023-05-21T08:13:52.994Z,9.23
2023-05-21T08:16:21.204Z,9.77
2023-05-21T08:18:48.888Z,9.07
2023-05-21T08:21:17.009Z,9.00
2023-05-21T08:23:44.802Z,9.93
2023-05-21T08:26:12.905Z,9.93
2023-05-21T08:28:40.592Z,10.27
2023-05-21T08:31:09.653Z,9.45
2023-05-21T08:33:38.226Z,9.18
2023-05-21T08:36:07.026Z,11.18
2023-05-21T08:38:36.433Z,10.02
2023-05-21T08:41:07.848Z,10.40
2023-05-21T08:43:38.029Z,9.68
2023-05-21T08:46:06.419Z,10.75
2023-05-21T08:48:37.656Z,10.57
2023-05-21T08:51:06.383Z,10.55
2023-05-21T08:53:34.318Z,11.45
2023-05-21T08:56:02.695Z,11.90
2023-05-21T08:58:33.569Z,11.98
2023-05-21T09:01:01.508Z,11.50
2023-05-21T09:03:31.666Z,12.55
2023-05-21T09:06:01.751Z,11.27
2023-05-21T09:08:32.869Z,12.95
2023-05-21T09:11:02.608Z,12.65
2023-05-21T09:13:32.628Z,12.68
2023-05-21T09:16:01.034Z,12.73
2023-05-21T09:18:28.717Z,12.40
2023-05-21T09:20:57.224Z,12.80
2023-05-21T09:23:29.739Z,13.48
2023-05-21T09:25:57.488Z,13.60
2023-05-21T09:28:26.380Z,14.25
2023-05-21T09:30:54.598Z,12.68
2023-05-21T09:33:26.824Z,13.82
2023-05-21T09:35:54.692Z,13.65
2023-05-21T09:38:23.933Z,14.43
2023-05-21T09:40:56.176Z,14.27
2023-05-21T09:43:23.919Z,14.32
2023-05-21T09:45:53.298Z,14.60
2023-05-21T09:48:34.525Z,14.23
2023-05-21T09:51:12.891Z,13.88
2023-05-21T09:53:54.483Z,14.25
2023-05-21T09:56:25.369Z,14.50
2023-05-21T09:58:54.728Z,13.57
2023-05-21T10:01:22.915Z,12.90
2023-05-21T10:03:56.265Z,12.88
2023-05-21T10:06:26.106Z,13.77
2023-05-21T10:08:55.902Z,12.88
2023-05-21T10:11:27.090Z,13.73
2023-05-21T10:13:59.107Z,14.13
2023-05-21T10:16:26.901Z,14.77
2023-05-21T10:18:57.578Z,14.45
2023-05-21T10:21:26.138Z,14.07
2023-05-21T10:23:56.443Z,14.63
2023-05-21T10:26:26.893Z,13.65
2023-05-21T10:28:57.232Z,15.13
2023-05-21T10:31:26.609Z,14.20
2023-05-21T10:33:55.080Z,14.45
2023-05-21T10:36:23.097Z,14.40
2023-05-21T10:38:50.777Z,13.40
2023-05-21T10:41:21.902Z,14.43
2023-05-21T10:44:03.747Z,15.02
2023-05-21T10:47:05.869Z,13.65
2023-05-21T10:49:51.582Z,13.07
2023-05-21T10:52:33.763Z,12.35
2023-05-21T10:55:13.858Z,13.25
2023-05-21T10:58:09.880Z,13.25
2023-05-21T11:00:39.806Z,12.93
2023-05-21T11:03:09.245Z,13.57
2023-05-21T11:05:42.132Z,13.18
2023-05-21T11:08:23.202Z,12.80
2023-05-21T11:10:54.915Z,13.02
2023-05-21T11:13:23.558Z,12.85
2023-05-21T11:16:08.967Z,13.30
2023-05-21T11:18:58.910Z,12.95
2023-05-21T11:21:31.164Z,12.77
2023-05-21T11:24:08.409Z,13.15
2023-05-21T11:27:02.230Z,12.60
2023-05-21T11:29:41.486Z,12.38
2023-05-21T11:32:11.440Z,11.90
2023-05-21T11:34:45.810Z,12.45
2023-05-21T11:37:41.723Z,13.32
2023-05-21T11:40:25.786Z,11.90
2023-05-21T11:42:54.859Z,12.35
2023-05-21T11:45:23.692Z,13.05
2023-05-21T11:47:53.536Z,13.32
2023-05-21T11:50:21.467Z,12.73
2023-05-21T11:52:50.243Z,12.80
2023-05-21T11:55:23.008Z,12.65
2023-05-21T11:57:55.048Z,11.93
2023-05-21T12:00:23.138Z,12.20
2023-05-21T12:02:55.509Z,12.05
2023-05-21T12:05:23.675Z,12.95
2023-05-21T12:07:51.444Z,12.55
2023-05-21T12:10:22.253Z,11.63
2023-05-21T12:12:55.645Z,11.38
2023-05-21T12:15:25.014Z,12.85
2023-05-21T12:17:54.386Z,12.15
2023-05-21T12:20:23.286Z,12.00
2023-05-21T12:22:51.084Z,13.35
2023-05-21T12:25:20.518Z,11.77
2023-05-21T12:27:50.456Z,13.18
2023-05-21T12:30:18.265Z,13.30
2023-05-21T12:32:46.004Z,12.15
2023-05-21T12:35:24.048Z,12.07
2023-05-21T12:37:52.582Z,11.75
2023-05-21T12:40:22.115Z,11.82
2023-05-21T12:42:50.955Z,11.75
2023-05-21T12:45:21.071Z,11.48
2023-05-21T12:47:50.544Z,11.80
2023-05-21T12:50:23.006Z,12.55
2023-05-21T12:52:50.707Z,12.77
2023-05-21T12:55:18.416Z,11.07
2023-05-21T12:57:47.587Z,11.45
2023-05-21T13:00:15.431Z,11.70
2023-05-21T13:02:45.771Z,12.18
2023-05-21T13:05:18.205Z,11.45
2023-05-21T13:07:47.889Z,11.88
2023-05-21T13:10:17.077Z,11.45
2023-05-21T13:12:45.219Z,12.18
2023-05-21T13:15:13.310Z,10.98
2023-05-21T13:17:41.052Z,11.85
2023-05-21T13:20:12.057Z,10.93
2023-05-21T13:22:43.784Z,10.25
2023-05-21T13:25:15.687Z,11.23
2023-05-21T13:27:44.525Z,11.48
2023-05-21T13:30:12.666Z,11.85
2023-05-21T13:32:41.418Z,11.20
2023-05-21T13:35:10.292Z,12.15
2023-05-21T13:37:38.133Z,11.07
2023-05-21T13:40:07.110Z,11.13
2023-05-21T13:42:38.324Z,10.45
2023-05-21T13:45:06.763Z,11.88
2023-05-21T13:47:36.841Z,12.05
2023-05-21T13:50:08.271Z,11.40
2023-05-21T13:52:36.347Z,11.38
2023-05-21T13:55:04.221Z,11.75
2023-05-21T13:57:32.121Z,11.50
2023-05-21T14:00:02.073Z,11.38
2023-05-21T14:02:30.136Z,11.57
2023-05-21T14:04:57.994Z,10.30
2023-05-21T14:07:25.717Z,10.82
2023-05-21T14:09:53.445Z,10.40
2023-05-21T14:12:21.729Z,10.80
2023-05-21T14:14:49.702Z,10.30
2023-05-21T14:17:18.943Z,10.23
2023-05-21T14:19:48.000Z,10.60
2023-05-21T14:22:15.782Z,9.88
2023-05-21T14:24:43.522Z,9.98
2023-05-21T14:27:13.150Z,10.25
2023-05-21T14:29:42.308Z,10.15
2023-05-21T14:32:10.084Z,10.30
2023-05-21T14:34:40.337Z,9.68
2023-05-21T14:37:08.125Z,9.85
2023-05-21T14:39:35.881Z,10.05
2023-05-21T14:42:04.561Z,9.88
2023-05-21T14:44:32.708Z,9.55
2023-05-21T14:47:00.502Z,9.68
2023-05-21T14:49:28.274Z,9.05
2023-05-21T14:51:57.310Z,9.38
2023-05-21T14:54:25.015Z,9.20
2023-05-21T14:56:52.760Z,9.52
2023-05-21T14:59:20.421Z,9.07
2023-05-21T15:01:48.222Z,9.00
2023-05-21T15:04:16.029Z,8.93
2023-05-21T15:06:43.813Z,9.27
2023-05-21T15:09:13.029Z,9.73
2023-05-21T15:11:40.795Z,9.82
2023-05-21T15:14:08.465Z,9.05
2023-05-21T15:16:36.203Z,9.27
2023-05-21T15:19:04.229Z,9.15
2023-05-21T15:21:32.084Z,8.73
2023-05-21T15:23:59.906Z,8.85
2023-05-21T15:26:28.945Z,8.90
2023-05-21T15:28:56.732Z,9.60
2023-05-21T15:31:24.410Z,8.57
2023-05-21T15:33:52.116Z,8.70
2023-05-21T15:36:19.940Z,8.75
2023-05-21T15:38:47.707Z,8.50
2023-05-21T15:41:15.410Z,8.23
2023-05-21T15:43:44.397Z,8.15
2023-05-21T15:46:12.729Z,8.10
2023-05-21T15:48:40.486Z,8.32
2023-05-21T15:51:08.242Z,8.75
2023-05-21T15:53:35.920Z,8.90
2023-05-21T15:56:04.185Z,7.85
2023-05-21T15:58:32.340Z,8.50
2023-05-21T16:01:01.485Z,8.00
2023-05-21T16:03:29.197Z,7.32
2023-05-21T16:05:56.877Z,7.85
2023-05-21T16:08:24.716Z,8.43
2023-05-21T16:10:52.374Z,8.40
2023-05-21T16:13:20.283Z,7.95
2023-05-21T16:15:47.927Z,7.65
2023-05-21T16:18:17.006Z,7.90
2023-05-21T16:20:44.919Z,8.38
2023-05-21T16:23:12.864Z,8.50
2023-05-21T16:25:40.589Z,8.40
2023-05-21T16:28:08.252Z,7.90
2023-05-21T16:30:35.900Z,7.85
2023-05-21T16:33:03.936Z,8.27
2023-05-21T16:35:33.006Z,8.35
2023-05-21T16:38:01.048Z,7.90
2023-05-21T16:40:28.715Z,7.78
2023-05-21T16:42:56.378Z,8.57
2023-05-21T16:45:24.088Z,8.55
2023-05-21T16:47:52.436Z,8.20
2023-05-21T16:50:20.735Z,7.82
2023-05-21T16:52:49.760Z,7.65
2023-05-21T16:55:17.477Z,7.82
2023-05-21T16:57:45.160Z,7.70
2023-05-21T17:00:13.759Z,8.00
2023-05-21T17:02:41.494Z,8.15
2023-05-21T17:05:09.526Z,8.50
2023-05-21T17:07:37.254Z,7.90
2023-05-21T17:10:07.679Z,8.40
2023-05-21T17:12:35.316Z,8.35
2023-05-21T17:15:04.020Z,8.80
2023-05-21T17:17:31.748Z,8.10
2023-05-21T17:19:59.668Z,8.68
2023-05-21T17:22:27.344Z,8.27
2023-05-21T17:24:55.125Z,7.60
2023-05-21T17:27:24.109Z,8.68
2023-05-21T17:29:51.792Z,8.00
2023-05-21T17:32:20.821Z,8.38
2023-05-21T17:34:48.513Z,8.00
2023-05-21T17:37:16.283Z,8.05
2023-05-21T17:39:43.994Z,8.48
2023-05-21T17:42:11.871Z,8.23
2023-05-21T17:44:40.881Z,8.05
2023-05-21T17:47:08.996Z,7.40
2023-05-21T17:49:36.758Z,7.80
2023-05-21T17:52:04.752Z,8.13
2023-05-21T17:54:32.571Z,8.15
2023-05-21T17:57:00.277Z,8.13
2023-05-21T17:59:27.998Z,12.98
2023-05-21T18:01:57.752Z,12.00
2023-05-21T18:04:25.470Z,8.68
2023-05-21T18:06:53.171Z,8.40
2023-05-21T18:09:20.833Z,8.18
2023-05-21T18:11:48.503Z,8.80
2023-05-21T18:14:16.285Z,7.35
2023-05-21T18:16:43.998Z,8.40
2023-05-21T18:19:13.377Z,7.88
2023-05-21T18:21:41.139Z,8.48
2023-05-21T18:24:09.275Z,7.72
2023-05-21T18:26:37.011Z,8.55
2023-05-21T18:29:04.716Z,8.55
2023-05-21T18:31:32.536Z,8.90
2023-05-21T18:34:00.224Z,8.32
2023-05-21T18:36:29.534Z,8.93
2023-05-21T18:38:57.573Z,8.23
2023-05-21T18:41:26.395Z,8.32
2023-05-21T18:43:54.071Z,8.43
2023-05-21T18:46:21.817Z,8.48
2023-05-21T18:48:49.796Z,8.70
2023-05-21T18:51:17.570Z,8.43
2023-05-21T18:53:46.566Z,8.30
2023-05-21T18:56:14.558Z,8.95
2023-05-21T18:58:42.241Z,9.55
2023-05-21T19:01:09.988Z,9.30
2023-05-21T19:03:39.071Z,9.20
2023-05-21T19:06:06.857Z,8.82
2023-05-21T19:08:34.771Z,10.00
2023-05-21T19:11:04.366Z,9.98
2023-05-21T19:13:32.046Z,13.35
2023-05-21T19:15:59.783Z,9.90
2023-05-21T19:18:30.368Z,9.18
2023-05-21T19:21:00.134Z,8.50
2023-05-21T19:23:28.545Z,9.05
2023-05-21T19:25:57.167Z,8.05
2023-05-21T19:28:26.189Z,9.10
2023-05-21T19:30:53.874Z,8.70
2023-05-21T19:33:21.723Z,9.38
2023-05-21T19:35:50.997Z,8.35
2023-05-21T19:38:18.673Z,10.05
2023-05-21T19:40:46.340Z,9.48
2023-05-21T19:43:14.012Z,9.68
2023-05-21T19:45:43.068Z,9.60
2023-05-21T19:48:11.089Z,10.43
2023-05-21T19:50:39.041Z,10.60
2023-05-21T19:53:07.339Z,10.73
2023-05-21T19:55:37.381Z,9.18
2023-05-21T19:58:05.127Z,9.23
2023-05-21T20:00:33.213Z,9.55
2023-05-21T20:03:02.341Z,9.13
2023-05-21T20:05:30.066Z,9.13
2023-05-21T20:07:58.398Z,8.40
2023-05-21T20:10:28.054Z,9.25
2023-05-21T20:12:55.837Z,8.55
2023-05-21T20:15:23.590Z,9.32
2023-05-21T20:17:51.382Z,8.90
2023-05-21T20:20:22.923Z,8.88
2023-05-21T20:22:50.654Z,9.15
2023-05-21T20:25:18.347Z,9.00
2023-05-21T20:27:46.414Z,8.85
2023-05-21T20:30:14.468Z,8.88
2023-05-21T20:32:42.180Z,9.30
2023-05-21T20:35:10.476Z,9.27
2023-05-21T20:37:39.653Z,8.93
2023-05-21T20:40:09.116Z,9.13
2023-05-21T20:42:37.161Z,9.15
2023-05-21T20:45:05.255Z,9.43
2023-05-21T20:47:33.714Z,9.18
2023-05-21T20:50:02.778Z,8.98
2023-05-21T20:52:30.472Z,8.93
2023-05-21T20:55:00.175Z,10.02
2023-05-21T20:57:29.764Z,9.02
2023-05-21T20:59:57.535Z,9.25
2023-05-21T21:02:25.440Z,10.13
2023-05-21T21:04:53.804Z,9.05
2023-05-21T21:07:21.884Z,9.65
2023-05-21T21:09:50.300Z,9.38
2023-05-21T21:12:25.314Z,9.65
2023-05-21T21:14:54.464Z,10.23
2023-05-21T21:17:22.174Z,9.77
2023-05-21T21:19:49.913Z,9.23
2023-05-21T21:22:18.300Z,8.70
2023-05-21T21:24:46.377Z,9.13
2023-05-21T21:27:14.283Z,8.98
2023-05-21T21:29:43.291Z,8.90
2023-05-21T21:32:10.965Z,9.50
2023-05-21T21:34:38.640Z,9.25
2023-05-21T21:37:06.537Z,9.40
2023-05-21T21:39:34.258Z,10.18
2023-05-21T21:42:02.025Z,10.02
2023-05-21T21:44:29.709Z,9.45
2023-05-21T21:46:58.700Z,9.52
2023-05-21T21:49:26.401Z,9.73
2023-05-21T21:51:57.631Z,9.27
2023-05-21T21:54:25.525Z,9.95
2023-05-21T21:56:53.203Z,8.95
2023-05-21T21:59:22.389Z,8.93
2023-05-21T22:01:50.229Z,8.65
2023-05-21T22:04:19.371Z,9.27
2023-05-21T22:06:48.226Z,8.10
2023-05-21T22:09:16.928Z,9.05
2023-05-21T22:11:44.672Z,8.80
2023-05-21T22:14:12.429Z,8.70
2023-05-21T22:16:41.474Z,9.10
2023-05-21T22:19:10.078Z,8.70
2023-05-21T22:21:39.670Z,9.10
2023-05-21T22:24:12.713Z,8.23
2023-05-21T22:26:45.468Z,8.20
2023-05-21T22:29:13.151Z,8.43
2023-05-21T22:31:40.820Z,7.93
2023-05-21T22:34:08.535Z,8.25
2023-05-21T22:36:38.756Z,8.75
2023-05-21T22:39:08.053Z,8.07
2023-05-21T22:41:35.769Z,8.23
2023-05-21T22:44:03.436Z,8.07
2023-05-21T22:46:31.981Z,8.13
2023-05-21T22:49:00.156Z,8.30
2023-05-21T22:51:28.799Z,7.80
2023-05-21T22:53:56.481Z,8.35
2023-05-21T22:56:26.316Z,8.05
2023-05-21T22:58:54.053Z,8.27
2023-05-21T23:01:21.796Z,7.75
2023-05-21T23:03:49.492Z,8.05
2023-05-21T23:06:17.224Z,8.05
2023-05-21T23:08:44.882Z,7.85
2023-05-21T23:11:12.621Z,7.72
2023-05-21T23:13:41.767Z,7.95
2023-05-21T23:16:09.546Z,7.97
2023-05-21T23:18:37.261Z,8.27
2023-05-21T23:21:05.148Z,7.95
2023-05-21T23:23:32.870Z,7.70
2023-05-21T23:26:00.585Z,7.78
2023-05-21T23:28:28.222Z,7.75
2023-05-21T23:30:57.284Z,7.80
2023-05-21T23:33:24.925Z,7.70
2023-05-21T23:35:52.586Z,8.13
2023-05-21T23:38:20.316Z,8.70
2023-05-21T23:40:48.008Z,7.93
2023-05-21T23:43:15.681Z,7.90
2023-05-21T23:45:43.436Z,8.30
2023-05-21T23:48:12.636Z,8.35
2023-05-21T23:50:40.417Z,7.93
2023-05-21T23:53:08.350Z,7.88
2023-05-21T23:55:36.446Z,8.60
2023-05-21T23:58:04.246Z,7.70
